createdAt,value
2018-11-09T00:03:45.620Z,9.13
2018-11-09T00:07:48.510Z,10.40
2018-11-09T00:11:51.412Z,8.77
2018-11-09T00:15:54.311Z,9.23
2018-11-09T00:19:57.204Z,11.27
2018-11-09T00:24:00.282Z,7.67
2018-11-09T00:28:03.317Z,10.50
2018-11-09T00:32:06.365Z,10.50
2018-11-09T00:36:09.485Z,15.40
2018-11-09T00:40:12.636Z,12.20
2018-11-09T00:44:15.545Z,10.90
2018-11-09T00:48:18.450Z,10.83
2018-11-09T00:52:21.365Z,18.73
2018-11-09T00:56:24.461Z,12.70
2018-11-09T01:00:27.366Z,11.97
2018-11-09T01:04:30.268Z,17.30
2018-11-09T01:08:33.381Z,12.17
2018-11-09T01:12:36.361Z,12.30
2018-11-09T01:16:39.481Z,13.07
2018-11-09T01:20:42.581Z,13.47
2018-11-09T01:24:45.573Z,12.63
2018-11-09T01:28:48.609Z,16.77
2018-11-09T01:32:51.521Z,13.97
2018-11-09T01:36:54.421Z,14.67
2018-11-09T01:40:57.354Z,14.67
2018-11-09T01:45:00.289Z,14.50
2018-11-09T01:49:09.588Z,19.50
2018-11-09T01:53:12.494Z,13.93
2018-11-09T01:57:15.412Z,17.93
2018-11-09T02:01:18.320Z,14.57
2018-11-09T02:05:21.248Z,15.53
2018-11-09T02:09:24.204Z,14.97
2018-11-09T02:13:27.121Z,17.10
2018-11-09T02:17:30.021Z,16.47
2018-11-09T02:21:32.928Z,16.73
2018-11-09T02:25:35.825Z,16.43
2018-11-09T02:29:38.740Z,17.10
2018-11-09T02:33:41.668Z,17.93
2018-11-09T02:37:44.708Z,15.57
2018-11-09T02:41:47.632Z,17.73
2018-11-09T02:45:50.601Z,15.80
2018-11-09T02:49:53.473Z,16.73
2018-11-09T02:53:56.582Z,16.47
2018-11-09T02:57:59.497Z,20.20
2018-11-09T03:02:02.408Z,16.17
2018-11-09T03:06:05.310Z,16.73
2018-11-09T03:10:08.700Z,17.83
2018-11-09T03:14:12.127Z,19.93
2018-11-09T03:18:15.249Z,15.83
2018-11-09T03:22:18.149Z,15.87
2018-11-09T03:26:21.265Z,16.20
2018-11-09T03:30:24.391Z,16.80
2018-11-09T03:34:27.312Z,20.37
2018-11-09T03:38:30.413Z,19.17
2018-11-09T03:42:33.348Z,17.17
2018-11-09T03:46:36.264Z,19.87
2018-11-09T03:50:39.160Z,20.47
2018-11-09T03:54:42.093Z,22.53
2018-11-09T03:58:44.938Z,19.47
2018-11-09T04:02:47.786Z,19.87
2018-11-09T04:06:50.651Z,20.97
2018-11-09T04:10:53.703Z,20.83
2018-11-09T04:14:56.572Z,19.53
2018-11-09T04:18:59.634Z,26.57
2018-11-09T04:23:02.715Z,21.63
2018-11-09T04:27:05.555Z,26.47
2018-11-09T04:31:08.423Z,23.13
2018-11-09T04:35:11.282Z,20.47
2018-11-09T04:39:14.970Z,19.93
2018-11-09T04:43:17.838Z,23.90
2018-11-09T04:47:20.738Z,22.40
2018-11-09T04:51:23.608Z,25.77
2018-11-09T04:55:26.454Z,24.50
2018-11-09T04:59:29.390Z,26.27
2018-11-09T05:03:32.461Z,22.80
2018-11-09T05:07:35.395Z,25.13
2018-11-09T05:11:38.692Z,27.97
2018-11-09T05:15:41.535Z,27.27
2018-11-09T05:19:44.390Z,25.07
2018-11-09T05:23:47.257Z,24.63
2018-11-09T05:27:50.154Z,27.73
2018-11-09T05:31:53.218Z,28.67
2018-11-09T05:35:56.095Z,30.10
2018-11-09T05:39:59.134Z,36.37
2018-11-09T05:44:02.235Z,25.47
2018-11-09T05:48:05.171Z,26.07
2018-11-09T05:52:08.267Z,30.57
2018-11-09T05:56:11.118Z,30.60
2018-11-09T06:00:15.255Z,27.63
2018-11-09T06:04:18.355Z,32.87
2018-11-09T06:08:21.219Z,32.87
2018-11-09T06:12:24.081Z,28.00
2018-11-09T06:16:27.151Z,28.97
2018-11-09T06:20:30.002Z,27.40
2018-11-09T06:24:33.067Z,33.27
2018-11-09T06:28:35.914Z,34.37
2018-11-09T06:32:39.222Z,28.20
2018-11-09T06:36:42.375Z,31.57
2018-11-09T06:40:45.234Z,33.40
2018-11-09T06:44:48.256Z,30.13
2018-11-09T06:48:50.975Z,31.40
2018-11-09T06:52:53.827Z,33.40
2018-11-09T06:56:56.697Z,29.23
2018-11-09T07:00:59.530Z,32.57
2018-11-09T07:05:02.415Z,35.50
2018-11-09T07:09:07.414Z,34.77
2018-11-09T07:13:10.271Z,33.17
2018-11-09T07:17:13.124Z,33.93
2018-11-09T07:21:16.331Z,34.73
2018-11-09T07:25:19.227Z,29.93
2018-11-09T07:29:22.046Z,31.40
2018-11-09T07:33:24.903Z,30.70
2018-11-09T07:37:27.816Z,34.60
2018-11-09T07:41:30.843Z,35.80
2018-11-09T07:45:33.831Z,32.60
2018-11-09T07:49:36.596Z,30.60
2018-11-09T07:53:39.459Z,30.70
2018-11-09T07:57:42.363Z,36.60
2018-11-09T08:01:45.182Z,30.70
2018-11-09T08:05:48.239Z,32.90
2018-11-09T08:09:51.156Z,33.10
2018-11-09T08:13:54.175Z,30.40
2018-11-09T08:17:57.043Z,35.70
2018-11-09T08:21:59.899Z,34.03
2018-11-09T08:26:03.012Z,34.30
2018-11-09T08:30:06.851Z,34.00
2018-11-09T08:34:09.985Z,35.77
2018-11-09T08:38:12.782Z,33.07
2018-11-09T08:42:15.678Z,34.47
2018-11-09T08:46:18.558Z,35.87
2018-11-09T08:50:21.668Z,34.90
2018-11-09T08:54:24.515Z,34.80
2018-11-09T08:58:27.389Z,37.57
2018-11-09T09:02:30.448Z,32.63
2018-11-09T09:06:33.306Z,36.00
2018-11-09T09:10:36.155Z,35.60
2018-11-09T09:14:39.334Z,35.27
2018-11-09T09:18:42.186Z,37.23
2018-11-09T09:22:45.267Z,36.10
2018-11-09T09:26:48.327Z,32.53
2018-11-09T09:30:51.195Z,35.27
2018-11-09T09:34:54.055Z,34.80
2018-11-09T09:38:56.907Z,37.33
2018-11-09T09:42:59.971Z,31.83
2018-11-09T09:47:02.857Z,31.57
2018-11-09T09:51:05.737Z,33.90
2018-11-09T09:55:09.315Z,33.43
2018-11-09T09:59:12.047Z,32.87
2018-11-09T10:03:14.911Z,31.73
2018-11-09T10:07:17.971Z,29.03
2018-11-09T10:11:20.827Z,32.20
2018-11-09T10:15:23.695Z,33.90
2018-11-09T10:19:26.943Z,28.27
2018-11-09T10:23:29.820Z,33.73
2018-11-09T10:27:32.689Z,27.87
2018-11-09T10:31:35.527Z,26.10
2018-11-09T10:35:38.599Z,31.97
2018-11-09T10:39:41.455Z,27.60
2018-11-09T10:43:44.310Z,28.33
2018-11-09T10:47:47.178Z,28.93
2018-11-09T10:51:50.323Z,28.67
2018-11-09T10:55:53.396Z,24.27
2018-11-09T10:59:56.247Z,24.23
2018-11-09T11:04:04.807Z,22.00
2018-11-09T11:08:07.639Z,25.30
2018-11-09T11:12:10.503Z,28.17
2018-11-09T11:16:13.381Z,22.97
2018-11-09T11:20:16.230Z,24.90
2018-11-09T11:24:19.308Z,20.97
2018-11-09T11:28:22.216Z,20.23
2018-11-09T11:32:25.235Z,23.43
2018-11-09T11:36:28.090Z,19.80
2018-11-09T11:40:31.025Z,19.80
2018-11-09T11:44:33.834Z,20.90
2018-11-09T11:48:36.802Z,20.67
2018-11-09T11:52:40.101Z,20.97
2018-11-09T11:56:42.948Z,19.43
2018-11-09T12:00:45.802Z,18.90
2018-11-09T12:04:48.666Z,19.83
2018-11-09T12:08:51.524Z,19.13
2018-11-09T12:12:54.768Z,17.77
2018-11-09T12:16:57.320Z,19.60
2018-11-09T12:21:00.167Z,21.37
2018-11-09T12:25:03.022Z,18.87
2018-11-09T12:29:06.217Z,18.27
2018-11-09T12:33:09.006Z,17.17
2018-11-09T12:37:12.279Z,22.60
2018-11-09T12:41:14.974Z,17.73
2018-11-09T12:45:17.898Z,17.77
2018-11-09T12:49:20.995Z,18.80
2018-11-09T12:53:23.926Z,17.53
2018-11-09T12:57:26.776Z,23.13
2018-11-09T13:01:29.645Z,17.67
2018-11-09T13:05:32.474Z,16.87
2018-11-09T13:09:35.334Z,20.70
2018-11-09T13:13:38.500Z,17.27
2018-11-09T13:17:41.467Z,16.97
2018-11-09T13:21:44.365Z,15.33
2018-11-09T13:25:47.215Z,16.17
2018-11-09T13:29:50.348Z,16.20
2018-11-09T13:33:53.143Z,21.10
2018-11-09T13:37:55.990Z,16.60
2018-11-09T13:41:58.863Z,17.63
2018-11-09T13:46:01.963Z,15.33
2018-11-09T13:50:05.499Z,19.50
2018-11-09T13:54:08.370Z,16.53
2018-11-09T13:58:11.240Z,18.47
2018-11-09T14:02:14.090Z,16.43
2018-11-09T14:06:16.956Z,17.90
2018-11-09T14:10:20.731Z,18.73
2018-11-09T14:14:23.639Z,18.13
2018-11-09T14:18:26.442Z,19.73
2018-11-09T14:22:29.511Z,16.53
2018-11-09T14:26:32.363Z,17.57
2018-11-09T14:30:35.263Z,19.03
2018-11-09T14:34:38.115Z,16.33
2018-11-09T14:38:41.022Z,17.73
2018-11-09T14:42:44.627Z,17.67
2018-11-09T14:46:47.695Z,15.90
2018-11-09T14:50:50.568Z,19.83
2018-11-09T14:54:53.426Z,17.40
2018-11-09T14:58:56.546Z,19.00
2018-11-09T15:02:59.363Z,19.13
2018-11-09T15:07:02.362Z,17.93
2018-11-09T15:11:05.373Z,20.30
2018-11-09T15:15:08.599Z,19.07
2018-11-09T15:19:11.458Z,17.43
2018-11-09T15:23:14.342Z,18.90
2018-11-09T15:27:17.208Z,18.07
2018-11-09T15:31:20.054Z,18.70
2018-11-09T15:35:22.910Z,19.40
2018-11-09T15:39:26.035Z,19.93
2018-11-09T15:43:28.844Z,19.93
2018-11-09T15:47:31.703Z,18.93
2018-11-09T15:51:34.591Z,18.57
2018-11-09T15:55:37.656Z,19.13
2018-11-09T15:59:40.534Z,20.50
2018-11-09T16:03:43.384Z,17.93
2018-11-09T16:07:46.920Z,21.37
2018-11-09T16:11:49.675Z,19.73
2018-11-09T16:15:52.753Z,21.37
2018-11-09T16:19:55.594Z,18.53
2018-11-09T16:23:58.594Z,19.03
2018-11-09T16:28:01.735Z,23.87
2018-11-09T16:32:04.304Z,19.80
2018-11-09T16:36:07.174Z,20.80
2018-11-09T16:40:10.046Z,19.90
2018-11-09T16:44:12.907Z,21.93
2018-11-09T16:48:15.988Z,20.50
2018-11-09T16:52:18.878Z,22.00
2018-11-09T16:56:21.714Z,21.93
2018-11-09T17:00:24.809Z,22.33
2018-11-09T17:04:27.638Z,26.40
2018-11-09T17:08:30.530Z,21.03
2018-11-09T17:12:33.390Z,19.90
2018-11-09T17:16:36.592Z,19.23
2018-11-09T17:20:39.659Z,21.23
2018-11-09T17:24:42.507Z,22.27
2018-11-09T17:28:45.372Z,20.20
2018-11-09T17:32:48.579Z,19.80
2018-11-09T17:36:51.436Z,21.47
2018-11-09T17:40:54.282Z,21.30
2018-11-09T17:44:57.139Z,25.37
2018-11-09T17:48:59.995Z,24.13
2018-11-09T17:53:02.878Z,25.33
2018-11-09T17:57:05.727Z,22.10
2018-11-09T18:01:08.815Z,25.00
2018-11-09T18:05:12.882Z,21.30
2018-11-09T18:09:15.883Z,21.17
2018-11-09T18:13:18.738Z,20.47
2018-11-09T18:17:21.923Z,23.73
2018-11-09T18:21:24.651Z,20.73
2018-11-09T18:25:27.510Z,27.33
2018-11-09T18:29:30.358Z,27.63
2018-11-09T18:33:33.288Z,21.57
2018-11-09T18:37:36.359Z,24.20
2018-11-09T18:41:39.324Z,20.07
2018-11-09T18:45:42.079Z,26.53
2018-11-09T18:49:45.155Z,19.87
2018-11-09T18:53:48.026Z,18.67
2018-11-09T18:57:50.886Z,19.60
2018-11-09T19:01:53.947Z,17.50
2018-11-09T19:05:56.798Z,18.33
2018-11-09T19:09:59.650Z,18.93
2018-11-09T19:14:02.547Z,19.87
2018-11-09T19:18:05.398Z,21.07
2018-11-09T19:22:08.503Z,23.00
2018-11-09T19:26:11.359Z,18.43
2018-11-09T19:30:15.466Z,19.97
2018-11-09T19:34:18.346Z,19.80
2018-11-09T19:38:21.208Z,18.17
2018-11-09T19:42:24.054Z,21.83
2018-11-09T19:46:27.124Z,17.90
2018-11-09T19:50:30.234Z,17.17
2018-11-09T19:54:33.115Z,17.60
2018-11-09T19:58:36.018Z,18.43
2018-11-09T20:02:38.940Z,23.30
2018-11-09T20:06:41.991Z,19.60
2018-11-09T20:10:45.088Z,18.30
2018-11-09T20:14:47.938Z,18.80
2018-11-09T20:18:50.799Z,20.30
2018-11-09T20:22:53.859Z,21.20
2018-11-09T20:26:56.726Z,17.73
2018-11-09T20:30:59.578Z,20.53
2018-11-09T20:35:02.447Z,18.63
2018-11-09T20:39:06.715Z,20.03
2018-11-09T20:43:09.578Z,18.93
2018-11-09T20:47:12.545Z,18.87
2018-11-09T20:51:15.295Z,17.90
2018-11-09T20:55:18.175Z,16.40
2018-11-09T20:59:21.047Z,17.20
2018-11-09T21:03:23.910Z,15.60
2018-11-09T21:07:26.771Z,17.40
2018-11-09T21:11:29.619Z,18.00
2018-11-09T21:15:32.479Z,17.80
2018-11-09T21:19:35.346Z,15.43
2018-11-09T21:23:38.207Z,17.40
2018-11-09T21:27:41.429Z,16.50
2018-11-09T21:31:44.286Z,16.73
2018-11-09T21:35:47.131Z,16.70
2018-11-09T21:39:50.212Z,24.63
2018-11-09T21:43:53.080Z,15.43
2018-11-09T21:47:55.934Z,16.90
2018-11-09T21:51:58.790Z,17.03
2018-11-09T21:56:01.884Z,18.83
2018-11-09T22:00:06.991Z,15.57
2018-11-09T22:04:09.854Z,14.20
2018-11-09T22:08:12.702Z,16.70
2018-11-09T22:12:15.775Z,17.03
2018-11-09T22:16:18.626Z,17.30
2018-11-09T22:20:21.490Z,15.10
2018-11-09T22:24:24.551Z,15.77
2018-11-09T22:28:27.410Z,15.80
2018-11-09T22:32:30.310Z,14.77
2018-11-09T22:36:33.385Z,16.30
2018-11-09T22:40:36.270Z,16.33
2018-11-09T22:44:39.130Z,17.03
2018-11-09T22:48:42.041Z,15.77
2018-11-09T22:52:44.898Z,17.50
2018-11-09T22:56:47.976Z,17.10
2018-11-09T23:00:50.836Z,18.20
2018-11-09T23:04:53.706Z,18.47
2018-11-09T23:08:56.767Z,16.77
2018-11-09T23:12:59.631Z,16.60
2018-11-09T23:17:02.614Z,17.50
2018-11-09T23:21:05.459Z,17.03
2018-11-09T23:25:08.758Z,16.97
2018-11-09T23:29:11.647Z,15.10
2018-11-09T23:33:14.502Z,16.43
2018-11-09T23:37:17.798Z,18.30
2018-11-09T23:41:20.688Z,15.73
2018-11-09T23:45:23.618Z,16.67
2018-11-09T23:49:26.694Z,15.47
2018-11-09T23:53:29.547Z,15.30
2018-11-09T23:57:32.639Z,22.40
